createdAt,value
2022-09-17T00:00:20.786Z,5.40
2022-09-17T00:01:20.821Z,6.00
2022-09-17T00:02:20.766Z,5.40
2022-09-17T00:03:20.907Z,5.30
2022-09-17T00:04:20.740Z,5.40
2022-09-17T00:05:23.948Z,5.40
2022-09-17T00:06:20.722Z,5.40
2022-09-17T00:07:21.374Z,5.30
2022-09-17T00:08:20.718Z,5.10
2022-09-17T00:09:20.685Z,5.20
2022-09-17T00:10:20.695Z,5.20
2022-09-17T00:11:20.669Z,5.00
2022-09-17T00:12:20.668Z,5.60
2022-09-17T00:13:20.642Z,5.20
2022-09-17T00:14:20.626Z,5.60
2022-09-17T00:15:20.620Z,5.40
2022-09-17T00:16:20.665Z,5.30
2022-09-17T00:17:20.598Z,5.50
2022-09-17T00:18:21.361Z,5.20
2022-09-17T00:19:20.581Z,5.20
2022-09-17T00:20:20.722Z,5.00
2022-09-17T00:21:20.667Z,5.10
2022-09-17T00:22:20.543Z,5.40
2022-09-17T00:23:20.533Z,5.20
2022-09-17T00:24:20.540Z,4.70
2022-09-17T00:25:20.516Z,4.90
2022-09-17T00:26:20.498Z,4.80
2022-09-17T00:27:20.485Z,4.60
2022-09-17T00:28:20.474Z,5.70
2022-09-17T00:29:20.473Z,5.10
2022-09-17T00:30:20.468Z,5.20
2022-09-17T00:31:20.513Z,5.30
2022-09-17T00:32:20.482Z,5.30
2022-09-17T00:33:20.418Z,5.10
2022-09-17T00:34:20.422Z,5.30
2022-09-17T00:35:20.394Z,5.90
2022-09-17T00:36:20.383Z,5.80
2022-09-17T00:37:20.487Z,5.60
2022-09-17T00:38:20.359Z,5.70
2022-09-17T00:39:20.375Z,5.60
2022-09-17T00:40:20.429Z,6.00
2022-09-17T00:41:20.329Z,5.70
2022-09-17T00:42:20.317Z,5.30
2022-09-17T00:43:20.398Z,5.40
2022-09-17T00:44:20.294Z,6.10
2022-09-17T00:45:20.287Z,6.20
2022-09-17T00:46:20.312Z,6.10
2022-09-17T00:47:20.290Z,6.00
2022-09-17T00:48:20.286Z,6.10
2022-09-17T00:49:20.263Z,6.10
2022-09-17T00:50:20.308Z,6.10
2022-09-17T00:51:20.221Z,5.90
2022-09-17T00:52:20.208Z,5.60
2022-09-17T00:53:20.316Z,5.50
2022-09-17T00:54:20.199Z,5.10
2022-09-17T00:55:20.187Z,5.30
2022-09-17T00:56:20.167Z,5.30
2022-09-17T00:57:20.152Z,5.20
2022-09-17T00:58:20.156Z,5.40
2022-09-17T00:59:20.131Z,5.50
2022-09-17T01:00:20.203Z,5.70
2022-09-17T01:01:20.179Z,5.30
2022-09-17T01:02:20.192Z,5.20
2022-09-17T01:03:20.142Z,5.20
2022-09-17T01:04:20.960Z,4.90
2022-09-17T01:05:20.886Z,5.00
2022-09-17T01:06:20.943Z,5.00
2022-09-17T01:07:20.442Z,4.90
2022-09-17T01:08:20.158Z,5.00
2022-09-17T01:09:20.270Z,4.80
2022-09-17T01:10:20.001Z,5.20
2022-09-17T01:11:20.007Z,4.90
2022-09-17T01:12:19.981Z,4.80
2022-09-17T01:13:19.981Z,4.80
2022-09-17T01:14:19.960Z,4.80
2022-09-17T01:15:19.950Z,5.00
2022-09-17T01:16:20.067Z,4.80
2022-09-17T01:17:20.974Z,4.70
2022-09-17T01:18:19.917Z,4.80
2022-09-17T01:19:19.908Z,4.70
2022-09-17T01:20:19.892Z,4.80
2022-09-17T01:21:19.894Z,5.00
2022-09-17T01:22:19.873Z,5.00
2022-09-17T01:23:19.861Z,5.00
2022-09-17T01:24:19.863Z,4.80
2022-09-17T01:25:19.951Z,4.90
2022-09-17T01:26:19.834Z,4.90
2022-09-17T01:27:19.816Z,4.70
2022-09-17T01:28:19.805Z,4.80
2022-09-17T01:29:20.640Z,4.60
2022-09-17T01:30:19.781Z,5.00
2022-09-17T01:31:19.852Z,4.90
2022-09-17T01:32:19.760Z,4.80
2022-09-17T01:33:19.745Z,4.90
2022-09-17T01:34:19.891Z,5.20
2022-09-17T01:35:19.725Z,4.90
2022-09-17T01:36:19.717Z,4.80
2022-09-17T01:37:19.702Z,4.80
2022-09-17T01:38:19.736Z,4.90
2022-09-17T01:39:19.685Z,4.60
2022-09-17T01:40:19.711Z,5.00
2022-09-17T01:41:19.776Z,4.80
2022-09-17T01:42:19.649Z,4.90
2022-09-17T01:43:19.657Z,4.80
2022-09-17T01:44:19.626Z,5.00
2022-09-17T01:45:19.614Z,4.90
2022-09-17T01:46:19.639Z,4.80
2022-09-17T01:47:21.184Z,5.20
2022-09-17T01:48:19.597Z,4.80
2022-09-17T01:49:19.749Z,4.90
2022-09-17T01:50:19.554Z,5.00
2022-09-17T01:51:19.548Z,4.60
2022-09-17T01:52:19.543Z,4.90
2022-09-17T01:53:19.715Z,4.80
2022-09-17T01:54:19.511Z,4.80
2022-09-17T01:55:19.505Z,4.80
2022-09-17T01:56:20.272Z,4.70
2022-09-17T01:57:19.591Z,4.90
2022-09-17T01:58:19.484Z,5.10
2022-09-17T01:59:19.455Z,4.80
2022-09-17T02:00:19.442Z,4.90
2022-09-17T02:01:19.478Z,4.80
2022-09-17T02:02:19.501Z,4.80
2022-09-17T02:03:19.425Z,4.70
2022-09-17T02:04:19.398Z,5.00
2022-09-17T02:05:19.396Z,4.70
2022-09-17T02:06:19.397Z,5.00
2022-09-17T02:07:19.384Z,4.70
2022-09-17T02:08:19.519Z,4.90
2022-09-17T02:09:19.346Z,5.20
2022-09-17T02:10:19.331Z,5.40
2022-09-17T02:11:19.336Z,5.50
2022-09-17T02:12:19.311Z,5.30
2022-09-17T02:13:19.475Z,5.70
2022-09-17T02:14:19.302Z,5.50
2022-09-17T02:15:19.278Z,5.40
2022-09-17T02:16:19.325Z,4.90
2022-09-17T02:17:19.258Z,5.20
2022-09-17T02:18:19.250Z,5.60
2022-09-17T02:19:19.253Z,6.00
2022-09-17T02:20:22.849Z,5.80
2022-09-17T02:21:19.211Z,5.70
2022-09-17T02:22:19.198Z,5.70
2022-09-17T02:23:19.191Z,5.70
2022-09-17T02:24:19.199Z,5.70
2022-09-17T02:25:19.906Z,6.00
2022-09-17T02:26:19.173Z,5.40
2022-09-17T02:27:19.145Z,5.40
2022-09-17T02:28:19.147Z,5.70
2022-09-17T02:29:20.245Z,5.30
2022-09-17T02:30:19.110Z,4.90
2022-09-17T02:31:19.119Z,4.90
2022-09-17T02:32:19.091Z,5.20
2022-09-17T02:33:19.101Z,4.90
2022-09-17T02:34:19.065Z,6.00
2022-09-17T02:35:19.056Z,5.10
2022-09-17T02:36:19.042Z,5.10
2022-09-17T02:37:19.034Z,5.10
2022-09-17T02:38:19.040Z,5.20
2022-09-17T02:39:19.013Z,5.00
2022-09-17T02:40:19.099Z,4.90
2022-09-17T02:41:18.989Z,5.20
2022-09-17T02:42:19.040Z,4.90
2022-09-17T02:43:18.968Z,5.10
2022-09-17T02:44:28.802Z,5.00
2022-09-17T02:45:19.075Z,5.70
2022-09-17T02:46:19.004Z,4.90
2022-09-17T02:47:18.958Z,4.90
2022-09-17T02:48:18.929Z,5.10
2022-09-17T02:49:19.074Z,5.10
2022-09-17T02:50:18.885Z,5.00
2022-09-17T02:51:18.884Z,5.10
2022-09-17T02:52:18.885Z,4.60
2022-09-17T02:53:18.898Z,5.20
2022-09-17T02:54:18.844Z,5.30
2022-09-17T02:55:18.835Z,5.60
2022-09-17T02:56:18.824Z,5.50
2022-09-17T02:57:19.011Z,5.10
2022-09-17T02:58:18.824Z,5.40
2022-09-17T02:59:18.790Z,5.10
2022-09-17T03:00:18.895Z,5.20
2022-09-17T03:01:19.009Z,5.00
2022-09-17T03:02:18.794Z,5.20
2022-09-17T03:03:18.843Z,5.00
2022-09-17T03:04:18.750Z,5.10
2022-09-17T03:05:18.766Z,5.20
2022-09-17T03:06:18.871Z,4.80
2022-09-17T03:07:18.697Z,5.00
2022-09-17T03:08:18.772Z,5.30
2022-09-17T03:09:18.675Z,5.20
2022-09-17T03:10:18.678Z,4.40
2022-09-17T03:11:18.650Z,5.50
2022-09-17T03:12:18.853Z,5.10
2022-09-17T03:13:18.647Z,5.40
2022-09-17T03:14:18.620Z,5.10
2022-09-17T03:15:18.607Z,5.40
2022-09-17T03:16:18.815Z,5.20
2022-09-17T03:17:18.587Z,5.40
2022-09-17T03:18:24.490Z,5.30
2022-09-17T03:19:18.561Z,5.30
2022-09-17T03:20:18.553Z,5.30
2022-09-17T03:21:18.542Z,5.50
2022-09-17T03:22:18.541Z,5.70
2022-09-17T03:23:21.210Z,5.40
2022-09-17T03:24:18.512Z,5.20
2022-09-17T03:25:18.501Z,5.40
2022-09-17T03:26:18.488Z,5.30
2022-09-17T03:27:18.494Z,5.10
2022-09-17T03:28:18.613Z,5.40
2022-09-17T03:29:19.421Z,5.20
2022-09-17T03:30:18.445Z,5.20
2022-09-17T03:31:18.564Z,5.00
2022-09-17T03:32:18.532Z,5.90
2022-09-17T03:33:18.406Z,5.30
2022-09-17T03:34:18.402Z,5.20
2022-09-17T03:35:18.385Z,6.10
2022-09-17T03:36:18.390Z,5.70
2022-09-17T03:37:18.363Z,5.20
2022-09-17T03:38:18.353Z,5.00
2022-09-17T03:39:18.349Z,4.90
2022-09-17T03:40:18.374Z,5.10
2022-09-17T03:41:18.333Z,5.10
2022-09-17T03:42:18.308Z,4.80
2022-09-17T03:43:18.299Z,4.90
2022-09-17T03:44:18.288Z,4.90
2022-09-17T03:45:18.274Z,5.20
2022-09-17T03:46:18.361Z,5.30
2022-09-17T03:47:18.253Z,5.40
2022-09-17T03:48:18.352Z,5.70
2022-09-17T03:49:18.230Z,5.10
2022-09-17T03:50:18.232Z,5.40
2022-09-17T03:51:18.206Z,5.40
2022-09-17T03:52:18.478Z,5.50
2022-09-17T03:53:18.186Z,5.30
2022-09-17T03:54:18.173Z,5.50
2022-09-17T03:55:18.168Z,6.10
2022-09-17T03:56:18.171Z,5.30
2022-09-17T03:57:18.142Z,5.40
2022-09-17T03:58:18.128Z,5.60
2022-09-17T03:59:18.126Z,5.50
2022-09-17T04:00:18.105Z,5.50
2022-09-17T04:01:18.172Z,5.50
2022-09-17T04:02:18.181Z,5.10
2022-09-17T04:03:18.073Z,4.80
2022-09-17T04:04:18.179Z,5.30
2022-09-17T04:05:18.240Z,5.70
2022-09-17T04:06:18.053Z,5.40
2022-09-17T04:07:18.032Z,5.40
2022-09-17T04:08:18.018Z,5.20
2022-09-17T04:09:18.172Z,5.70
2022-09-17T04:10:17.992Z,5.50
2022-09-17T04:11:17.994Z,5.30
2022-09-17T04:12:17.969Z,5.60
2022-09-17T04:13:17.960Z,5.20
2022-09-17T04:14:17.946Z,5.60
2022-09-17T04:15:17.942Z,5.30
2022-09-17T04:16:18.030Z,4.90
2022-09-17T04:17:17.914Z,5.00
2022-09-17T04:18:17.903Z,5.20
2022-09-17T04:19:17.897Z,5.10
2022-09-17T04:20:18.019Z,5.10
2022-09-17T04:21:17.873Z,5.30
2022-09-17T04:22:18.024Z,5.30
2022-09-17T04:23:17.844Z,5.00
2022-09-17T04:24:17.835Z,5.00
2022-09-17T04:25:17.831Z,5.20
2022-09-17T04:26:17.892Z,5.00
2022-09-17T04:27:17.820Z,4.70
2022-09-17T04:28:17.800Z,4.80
2022-09-17T04:29:17.778Z,5.10
2022-09-17T04:30:17.837Z,4.60
2022-09-17T04:31:17.816Z,5.00
2022-09-17T04:32:17.761Z,4.70
2022-09-17T04:33:17.738Z,4.60
2022-09-17T04:34:17.731Z,4.60
2022-09-17T04:35:17.721Z,4.80
2022-09-17T04:36:17.819Z,5.10
2022-09-17T04:37:17.707Z,4.80
2022-09-17T04:38:17.682Z,4.90
2022-09-17T04:39:17.671Z,4.80
2022-09-17T04:40:17.721Z,4.90
2022-09-17T04:41:17.643Z,4.60
2022-09-17T04:42:17.672Z,4.90
2022-09-17T04:43:17.768Z,5.00
2022-09-17T04:44:17.613Z,5.10
2022-09-17T04:45:17.633Z,5.50
2022-09-17T04:46:17.626Z,5.20
2022-09-17T04:47:17.597Z,5.20
2022-09-17T04:48:17.569Z,5.20
2022-09-17T04:49:17.562Z,5.30
2022-09-17T04:50:17.550Z,5.30
2022-09-17T04:51:17.628Z,5.10
2022-09-17T04:52:17.678Z,5.60
2022-09-17T04:53:17.524Z,5.20
2022-09-17T04:54:17.506Z,5.30
2022-09-17T04:55:17.490Z,5.10
2022-09-17T04:56:17.483Z,5.30
2022-09-17T04:57:17.489Z,5.50
2022-09-17T04:58:18.444Z,5.40
2022-09-17T04:59:17.446Z,5.40
2022-09-17T05:00:17.437Z,5.50
2022-09-17T05:01:17.468Z,5.20
2022-09-17T05:02:17.477Z,5.70
2022-09-17T05:03:17.401Z,5.40
2022-09-17T05:04:17.444Z,5.30
2022-09-17T05:05:17.381Z,4.90
2022-09-17T05:06:17.368Z,5.00
2022-09-17T05:07:17.369Z,5.50
2022-09-17T05:08:17.459Z,5.60
2022-09-17T05:09:17.353Z,5.30
2022-09-17T05:10:17.323Z,5.40
2022-09-17T05:11:17.311Z,5.60
2022-09-17T05:12:17.327Z,5.70
2022-09-17T05:13:17.290Z,5.60
2022-09-17T05:14:17.283Z,5.70
2022-09-17T05:15:17.566Z,5.50
2022-09-17T05:16:17.335Z,5.30
2022-09-17T05:17:18.294Z,6.00
2022-09-17T05:18:17.236Z,5.60
2022-09-17T05:19:18.336Z,5.50
2022-09-17T05:20:17.211Z,5.60
2022-09-17T05:21:17.203Z,5.20
2022-09-17T05:22:20.838Z,5.70
2022-09-17T05:23:17.182Z,5.40
2022-09-17T05:24:17.285Z,6.30
2022-09-17T05:25:17.155Z,5.90
2022-09-17T05:26:17.152Z,5.40
2022-09-17T05:27:21.997Z,5.40
2022-09-17T05:28:17.124Z,5.70
2022-09-17T05:29:17.120Z,6.10
2022-09-17T05:30:17.103Z,5.60
2022-09-17T05:31:17.130Z,5.60
2022-09-17T05:32:17.410Z,5.80
2022-09-17T05:33:17.068Z,5.70
2022-09-17T05:34:17.058Z,5.30
2022-09-17T05:35:17.042Z,5.60
2022-09-17T05:36:17.149Z,5.60
2022-09-17T05:37:17.048Z,5.70
2022-09-17T05:38:17.014Z,5.40
2022-09-17T05:39:17.968Z,5.90
2022-09-17T05:40:17.186Z,5.70
2022-09-17T05:41:16.978Z,5.60
2022-09-17T05:42:16.966Z,5.90
2022-09-17T05:43:16.955Z,5.20
2022-09-17T05:44:21.459Z,5.50
2022-09-17T05:45:16.938Z,5.30
2022-09-17T05:46:17.473Z,5.40
2022-09-17T05:47:16.914Z,5.40
2022-09-17T05:48:16.899Z,5.50
2022-09-17T05:49:16.892Z,5.50
2022-09-17T05:50:16.897Z,5.30
2022-09-17T05:51:17.416Z,5.80
2022-09-17T05:52:16.855Z,5.60
2022-09-17T05:53:16.859Z,5.40
2022-09-17T05:54:16.834Z,6.00
2022-09-17T05:55:16.835Z,5.70
2022-09-17T05:56:17.695Z,5.20
2022-09-17T05:57:16.801Z,5.40
2022-09-17T05:58:16.791Z,5.30
2022-09-17T05:59:16.778Z,5.30
2022-09-17T06:00:16.785Z,5.20
2022-09-17T06:01:16.755Z,5.40
2022-09-17T06:02:16.820Z,5.40
2022-09-17T06:03:16.850Z,5.40
2022-09-17T06:04:16.726Z,5.50
2022-09-17T06:05:16.742Z,5.50
2022-09-17T06:06:16.702Z,5.90
2022-09-17T06:07:16.697Z,5.90
2022-09-17T06:08:16.736Z,5.50
2022-09-17T06:09:16.672Z,5.40
2022-09-17T06:10:16.677Z,5.60
2022-09-17T06:11:16.651Z,5.30
2022-09-17T06:12:16.763Z,5.50
2022-09-17T06:13:16.645Z,5.60
2022-09-17T06:14:16.618Z,6.30
2022-09-17T06:15:16.620Z,5.60
2022-09-17T06:16:16.645Z,5.50
2022-09-17T06:17:21.496Z,5.50
2022-09-17T06:18:17.573Z,5.60
2022-09-17T06:19:16.561Z,5.30
2022-09-17T06:20:16.567Z,5.50
2022-09-17T06:21:16.540Z,5.30
2022-09-17T06:22:16.529Z,5.40
2022-09-17T06:23:16.805Z,5.30
2022-09-17T06:24:16.527Z,5.50
2022-09-17T06:25:16.506Z,5.30
2022-09-17T06:26:16.489Z,5.40
2022-09-17T06:27:16.630Z,5.20
2022-09-17T06:28:16.581Z,5.90
2022-09-17T06:29:16.450Z,5.60
2022-09-17T06:30:16.456Z,5.10
2022-09-17T06:31:16.465Z,5.10
2022-09-17T06:32:16.417Z,5.70
2022-09-17T06:33:16.405Z,5.40
2022-09-17T06:34:16.397Z,5.40
2022-09-17T06:35:16.411Z,5.30
2022-09-17T06:36:16.549Z,5.20
2022-09-17T06:37:16.364Z,5.40
2022-09-17T06:38:16.546Z,5.60
2022-09-17T06:39:16.357Z,5.50
2022-09-17T06:40:16.404Z,5.30
2022-09-17T06:41:16.321Z,6.30
2022-09-17T06:42:16.978Z,5.60
2022-09-17T06:43:16.295Z,5.30
2022-09-17T06:44:16.406Z,5.70
2022-09-17T06:45:16.997Z,5.90
2022-09-17T06:46:16.323Z,5.60
2022-09-17T06:47:16.254Z,5.60
2022-09-17T06:48:16.242Z,5.50
2022-09-17T06:49:16.234Z,5.70
2022-09-17T06:50:16.235Z,5.50
2022-09-17T06:51:16.208Z,5.40
2022-09-17T06:52:16.198Z,5.60
2022-09-17T06:53:16.187Z,5.10
2022-09-17T06:54:19.261Z,5.40
2022-09-17T06:55:16.165Z,5.30
2022-09-17T06:56:16.155Z,5.10
2022-09-17T06:57:16.174Z,4.90
2022-09-17T06:58:16.130Z,5.30
2022-09-17T06:59:16.180Z,5.40
2022-09-17T07:00:16.237Z,5.90
2022-09-17T07:01:16.284Z,6.00
2022-09-17T07:02:16.114Z,6.40
2022-09-17T07:03:19.991Z,6.30
2022-09-17T07:04:17.064Z,5.90
2022-09-17T07:05:16.051Z,6.10
2022-09-17T07:06:16.049Z,6.20
2022-09-17T07:07:16.024Z,5.30
2022-09-17T07:08:18.120Z,5.30
2022-09-17T07:09:16.002Z,5.70
2022-09-17T07:10:15.995Z,5.50
2022-09-17T07:11:15.983Z,5.70
2022-09-17T07:12:16.992Z,6.00
2022-09-17T07:13:15.958Z,5.40
2022-09-17T07:14:15.949Z,5.90
2022-09-17T07:15:15.936Z,5.90
2022-09-17T07:16:16.384Z,5.60
2022-09-17T07:17:15.913Z,5.80
2022-09-17T07:18:15.902Z,5.90
2022-09-17T07:19:15.896Z,5.60
2022-09-17T07:20:15.882Z,6.00
2022-09-17T07:21:15.893Z,5.90
2022-09-17T07:22:15.860Z,6.00
2022-09-17T07:23:15.842Z,6.30
2022-09-17T07:24:16.356Z,6.20
2022-09-17T07:25:15.836Z,5.70
2022-09-17T07:26:15.811Z,5.50
2022-09-17T07:27:15.804Z,5.60
2022-09-17T07:28:15.792Z,5.70
2022-09-17T07:29:15.789Z,5.90
2022-09-17T07:30:15.782Z,5.70
2022-09-17T07:31:16.863Z,5.70
2022-09-17T07:32:15.861Z,5.60
2022-09-17T07:33:16.003Z,5.10
2022-09-17T07:34:15.723Z,5.50
2022-09-17T07:35:15.708Z,6.50
2022-09-17T07:36:15.696Z,5.70
2022-09-17T07:37:15.685Z,5.70
2022-09-17T07:38:15.695Z,6.20
2022-09-17T07:39:15.660Z,6.40
2022-09-17T07:40:15.688Z,6.10
2022-09-17T07:41:15.676Z,6.10
2022-09-17T07:42:15.631Z,5.50
2022-09-17T07:43:18.848Z,5.60
2022-09-17T07:44:15.611Z,5.30
2022-09-17T07:45:15.596Z,5.70
2022-09-17T07:46:15.637Z,5.80
2022-09-17T07:47:15.571Z,5.70
2022-09-17T07:48:15.781Z,5.30
2022-09-17T07:49:15.570Z,5.10
2022-09-17T07:50:15.540Z,5.70
2022-09-17T07:51:15.525Z,5.70
2022-09-17T07:52:15.517Z,5.90
2022-09-17T07:53:15.524Z,5.70
2022-09-17T07:54:15.496Z,5.60
2022-09-17T07:55:15.481Z,5.30
2022-09-17T07:56:15.472Z,5.30
2022-09-17T07:57:15.456Z,5.60
2022-09-17T07:58:15.462Z,5.50
2022-09-17T07:59:15.436Z,5.60
2022-09-17T08:00:18.343Z,5.60
2022-09-17T08:01:15.415Z,6.00
2022-09-17T08:02:15.517Z,5.10
2022-09-17T08:03:15.490Z,5.50
2022-09-17T08:04:15.496Z,5.10
2022-09-17T08:05:15.371Z,5.20
2022-09-17T08:06:15.412Z,5.40
2022-09-17T08:07:15.348Z,5.50
2022-09-17T08:08:22.682Z,5.40
2022-09-17T08:09:15.416Z,5.20
2022-09-17T08:10:15.315Z,5.50
2022-09-17T08:11:23.694Z,5.30
2022-09-17T08:12:23.168Z,5.30
2022-09-17T08:13:15.322Z,5.50
2022-09-17T08:14:15.279Z,5.10
2022-09-17T08:15:15.266Z,5.50
2022-09-17T08:16:15.326Z,5.60
2022-09-17T08:17:15.257Z,5.70
2022-09-17T08:18:15.232Z,5.70
2022-09-17T08:19:15.220Z,4.90
2022-09-17T08:20:15.339Z,5.70
2022-09-17T08:21:15.200Z,5.40
2022-09-17T08:22:15.318Z,4.90
2022-09-17T08:23:15.292Z,5.10
2022-09-17T08:24:15.202Z,4.90
2022-09-17T08:25:15.204Z,5.10
2022-09-17T08:26:15.154Z,5.20
2022-09-17T08:27:15.147Z,5.10
2022-09-17T08:28:15.210Z,5.10
2022-09-17T08:29:15.130Z,5.20
2022-09-17T08:30:15.098Z,5.10
2022-09-17T08:31:31.919Z,5.10
2022-09-17T08:32:15.070Z,5.00
2022-09-17T08:33:15.079Z,5.40
2022-09-17T08:34:15.080Z,5.40
2022-09-17T08:35:15.048Z,5.00
2022-09-17T08:36:15.142Z,4.80
2022-09-17T08:37:15.034Z,5.50
2022-09-17T08:38:15.031Z,5.60
2022-09-17T08:39:15.063Z,5.50
2022-09-17T08:40:15.032Z,5.60
2022-09-17T08:41:15.547Z,4.90
2022-09-17T08:42:14.980Z,5.00
2022-09-17T08:43:14.951Z,4.70
2022-09-17T08:44:14.992Z,5.10
2022-09-17T08:45:15.025Z,4.70
2022-09-17T08:46:14.989Z,4.20
2022-09-17T08:47:15.534Z,5.00
2022-09-17T08:48:14.951Z,4.90
2022-09-17T08:49:14.892Z,4.80
2022-09-17T08:50:14.935Z,5.00
2022-09-17T08:51:14.908Z,5.20
2022-09-17T08:52:15.010Z,5.50
2022-09-17T08:53:14.846Z,4.90
2022-09-17T08:54:14.836Z,5.10
2022-09-17T08:55:14.823Z,5.20
2022-09-17T08:56:14.817Z,4.90
2022-09-17T08:57:14.816Z,4.60
2022-09-17T08:58:14.835Z,5.00
2022-09-17T08:59:18.424Z,5.00
2022-09-17T09:00:15.763Z,4.80
2022-09-17T09:01:14.751Z,4.60
2022-09-17T09:02:18.892Z,4.90
2022-09-17T09:03:23.576Z,4.40
2022-09-17T09:04:14.803Z,4.70
2022-09-17T09:05:14.754Z,5.10
2022-09-17T09:06:14.736Z,4.90
2022-09-17T09:07:15.432Z,4.30
2022-09-17T09:08:14.795Z,4.90
2022-09-17T09:09:14.672Z,4.60
2022-09-17T09:10:14.740Z,4.60
2022-09-17T09:11:14.667Z,4.50
2022-09-17T09:12:14.649Z,4.50
2022-09-17T09:13:14.625Z,4.80
2022-09-17T09:14:14.611Z,4.80
2022-09-17T09:15:15.589Z,4.80
2022-09-17T09:16:14.684Z,4.20
2022-09-17T09:17:14.588Z,4.60
2022-09-17T09:18:14.575Z,5.00
2022-09-17T09:19:14.574Z,4.90
2022-09-17T09:20:14.550Z,5.10
2022-09-17T09:21:15.077Z,5.40
2022-09-17T09:22:14.529Z,4.90
2022-09-17T09:23:14.522Z,5.10
2022-09-17T09:24:14.627Z,4.90
2022-09-17T09:25:14.513Z,5.10
2022-09-17T09:26:14.487Z,4.90
2022-09-17T09:27:14.470Z,5.20
2022-09-17T09:28:14.462Z,5.30
2022-09-17T09:29:14.473Z,4.70
2022-09-17T09:30:14.443Z,5.40
2022-09-17T09:31:14.479Z,4.90
2022-09-17T09:32:16.513Z,4.80
2022-09-17T09:33:14.412Z,5.10
2022-09-17T09:34:14.438Z,5.10
2022-09-17T09:35:14.392Z,5.30
2022-09-17T09:36:14.670Z,5.40
2022-09-17T09:37:14.370Z,5.30
2022-09-17T09:38:14.357Z,5.40
2022-09-17T09:39:15.536Z,5.20
2022-09-17T09:40:14.699Z,5.10
2022-09-17T09:41:14.338Z,5.50
2022-09-17T09:42:14.315Z,5.10
2022-09-17T09:43:14.327Z,5.70
2022-09-17T09:44:14.499Z,5.70
2022-09-17T09:45:14.292Z,5.10
2022-09-17T09:46:14.335Z,5.30
2022-09-17T09:47:14.417Z,5.60
2022-09-17T09:48:14.364Z,5.90
2022-09-17T09:49:14.255Z,5.90
2022-09-17T09:50:14.228Z,5.40
2022-09-17T09:51:14.215Z,5.30
2022-09-17T09:52:14.205Z,5.80
2022-09-17T09:53:14.194Z,6.20
2022-09-17T09:54:14.212Z,6.20
2022-09-17T09:55:14.218Z,5.40
2022-09-17T09:56:14.285Z,6.40
2022-09-17T09:57:15.099Z,5.50
2022-09-17T09:58:14.223Z,5.80
2022-09-17T09:59:14.194Z,5.70
2022-09-17T10:00:14.145Z,5.70
2022-09-17T10:01:15.195Z,5.40
2022-09-17T10:02:23.474Z,5.30
2022-09-17T10:03:14.089Z,5.80
2022-09-17T10:04:14.077Z,5.60
2022-09-17T10:05:14.059Z,5.90
2022-09-17T10:06:14.051Z,6.20
2022-09-17T10:07:16.436Z,5.50
2022-09-17T10:08:14.031Z,6.10
2022-09-17T10:09:14.028Z,5.60
2022-09-17T10:10:14.182Z,5.90
2022-09-17T10:11:13.994Z,5.60
2022-09-17T10:12:14.112Z,5.40
2022-09-17T10:13:13.978Z,5.60
2022-09-17T10:14:14.559Z,5.50
2022-09-17T10:15:13.948Z,5.50
2022-09-17T10:16:13.992Z,5.30
2022-09-17T10:17:13.944Z,5.60
2022-09-17T10:18:13.916Z,5.90
2022-09-17T10:19:13.904Z,5.80
2022-09-17T10:20:13.909Z,5.10
2022-09-17T10:21:13.879Z,5.50
2022-09-17T10:22:13.902Z,5.30
2022-09-17T10:23:13.861Z,5.50
2022-09-17T10:24:13.849Z,5.20
2022-09-17T10:25:13.846Z,5.90
2022-09-17T10:26:18.824Z,5.40
2022-09-17T10:27:13.888Z,5.40
2022-09-17T10:28:13.927Z,5.50
2022-09-17T10:29:13.799Z,5.10
2022-09-17T10:30:13.812Z,4.80
2022-09-17T10:31:13.817Z,5.20
2022-09-17T10:32:13.764Z,5.20
2022-09-17T10:33:13.907Z,5.60
2022-09-17T10:34:13.772Z,6.10
2022-09-17T10:35:13.728Z,5.40
2022-09-17T10:36:13.725Z,6.00
2022-09-17T10:37:13.734Z,5.60
2022-09-17T10:38:13.700Z,5.90
2022-09-17T10:39:13.747Z,6.30
2022-09-17T10:40:13.760Z,5.60
2022-09-17T10:41:13.665Z,5.40
2022-09-17T10:42:13.653Z,5.30
2022-09-17T10:43:13.653Z,5.80
2022-09-17T10:44:14.002Z,5.70
2022-09-17T10:45:13.620Z,5.20
2022-09-17T10:46:13.650Z,5.80
2022-09-17T10:47:13.598Z,5.90
2022-09-17T10:48:13.635Z,6.10
2022-09-17T10:49:13.591Z,5.80
2022-09-17T10:50:13.578Z,6.30
2022-09-17T10:51:13.571Z,5.50
2022-09-17T10:52:13.580Z,6.10
2022-09-17T10:53:13.534Z,6.00
2022-09-17T10:54:13.526Z,6.30
2022-09-17T10:55:13.533Z,6.20
2022-09-17T10:56:13.605Z,6.10
2022-09-17T10:57:13.492Z,5.60
2022-09-17T10:58:13.480Z,5.90
2022-09-17T10:59:16.752Z,5.80
2022-09-17T11:00:13.540Z,5.90
2022-09-17T11:01:13.496Z,5.80
2022-09-17T11:02:13.544Z,5.80
2022-09-17T11:03:15.377Z,5.30
2022-09-17T11:04:13.427Z,5.50
2022-09-17T11:05:13.478Z,5.00
2022-09-17T11:06:14.644Z,5.80
2022-09-17T11:07:13.399Z,5.70
2022-09-17T11:08:13.388Z,5.50
2022-09-17T11:09:16.847Z,5.50
2022-09-17T11:10:13.373Z,5.40
2022-09-17T11:11:13.343Z,5.40
2022-09-17T11:12:13.342Z,5.90
2022-09-17T11:13:13.314Z,5.40
2022-09-17T11:14:13.317Z,5.50
2022-09-17T11:15:13.416Z,5.30
2022-09-17T11:16:13.351Z,5.40
2022-09-17T11:17:13.274Z,6.00
2022-09-17T11:18:13.283Z,5.40
2022-09-17T11:19:13.568Z,5.60
2022-09-17T11:20:13.239Z,6.00
2022-09-17T11:21:13.228Z,5.90
2022-09-17T11:22:14.134Z,5.40
2022-09-17T11:23:13.203Z,5.80
2022-09-17T11:24:13.208Z,5.40
2022-09-17T11:25:13.184Z,5.50
2022-09-17T11:26:13.175Z,5.20
2022-09-17T11:27:13.163Z,5.70
2022-09-17T11:28:13.150Z,5.30
2022-09-17T11:29:13.160Z,5.30
2022-09-17T11:30:13.128Z,4.50
2022-09-17T11:31:13.281Z,4.80
2022-09-17T11:32:13.109Z,4.90
2022-09-17T11:33:13.194Z,5.40
2022-09-17T11:34:13.104Z,5.60
2022-09-17T11:35:13.082Z,4.80
2022-09-17T11:36:13.072Z,4.70
2022-09-17T11:37:14.565Z,5.10
2022-09-17T11:38:13.043Z,5.20
2022-09-17T11:39:13.105Z,5.00
2022-09-17T11:40:13.069Z,4.80
2022-09-17T11:41:13.015Z,5.60
2022-09-17T11:42:13.024Z,5.30
2022-09-17T11:43:12.988Z,5.10
2022-09-17T11:44:12.980Z,4.90
2022-09-17T11:45:12.968Z,5.00
2022-09-17T11:46:13.029Z,4.70
2022-09-17T11:47:13.059Z,5.10
2022-09-17T11:48:12.934Z,5.10
2022-09-17T11:49:12.927Z,4.70
2022-09-17T11:50:13.046Z,4.60
2022-09-17T11:51:16.912Z,4.70
2022-09-17T11:52:12.897Z,4.80
2022-09-17T11:53:12.878Z,4.80
2022-09-17T11:54:12.872Z,4.40
2022-09-17T11:55:12.884Z,4.60
2022-09-17T11:56:12.857Z,4.60
2022-09-17T11:57:12.840Z,4.50
2022-09-17T11:58:12.844Z,4.10
2022-09-17T11:59:12.823Z,4.30
2022-09-17T12:00:12.798Z,4.10
2022-09-17T12:01:12.823Z,4.60
2022-09-17T12:02:12.834Z,4.20
2022-09-17T12:03:12.963Z,4.20
2022-09-17T12:04:12.764Z,4.40
2022-09-17T12:05:12.748Z,4.20
2022-09-17T12:06:12.750Z,4.50
2022-09-17T12:07:12.734Z,4.40
2022-09-17T12:08:14.778Z,4.10
2022-09-17T12:09:12.708Z,4.10
2022-09-17T12:10:12.723Z,4.40
2022-09-17T12:11:12.707Z,4.30
2022-09-17T12:12:26.571Z,4.50
2022-09-17T12:13:13.665Z,3.90
2022-09-17T12:14:12.688Z,4.30
2022-09-17T12:15:12.654Z,4.50
2022-09-17T12:16:12.678Z,4.30
2022-09-17T12:17:12.615Z,4.40
2022-09-17T12:18:31.074Z,4.30
2022-09-17T12:19:13.734Z,4.60
2022-09-17T12:20:12.661Z,4.70
2022-09-17T12:21:12.577Z,4.80
2022-09-17T12:22:12.737Z,4.90
2022-09-17T12:23:12.556Z,4.80
2022-09-17T12:24:12.544Z,4.40
2022-09-17T12:25:12.546Z,4.40
2022-09-17T12:26:12.522Z,4.40
2022-09-17T12:27:12.512Z,4.80
2022-09-17T12:28:12.599Z,4.50
2022-09-17T12:29:12.496Z,4.50
2022-09-17T12:30:12.542Z,4.40
2022-09-17T12:31:12.529Z,4.30
2022-09-17T12:32:12.452Z,4.30
2022-09-17T12:33:12.445Z,4.40
2022-09-17T12:34:12.449Z,4.20
2022-09-17T12:35:12.541Z,4.10
2022-09-17T12:36:12.424Z,4.10
2022-09-17T12:37:12.410Z,4.50
2022-09-17T12:38:12.396Z,4.20
2022-09-17T12:39:12.382Z,5.00
2022-09-17T12:40:13.009Z,4.50
2022-09-17T12:41:12.364Z,4.20
2022-09-17T12:42:12.344Z,4.40
2022-09-17T12:43:12.337Z,4.70
2022-09-17T12:44:12.329Z,4.30
2022-09-17T12:45:12.599Z,4.30
2022-09-17T12:46:12.347Z,4.50
2022-09-17T12:47:12.294Z,4.70
2022-09-17T12:48:12.302Z,4.40
2022-09-17T12:49:12.270Z,4.50
2022-09-17T12:50:12.263Z,4.60
2022-09-17T12:51:12.361Z,4.60
2022-09-17T12:52:12.243Z,4.50
2022-09-17T12:53:12.245Z,4.30
2022-09-17T12:54:12.218Z,4.30
2022-09-17T12:55:12.208Z,4.50
2022-09-17T12:56:12.347Z,4.20
2022-09-17T12:57:12.211Z,4.20
2022-09-17T12:58:12.182Z,4.60
2022-09-17T12:59:12.173Z,4.70
2022-09-17T13:00:12.184Z,4.60
2022-09-17T13:01:12.228Z,4.40
2022-09-17T13:02:12.309Z,4.40
2022-09-17T13:03:12.124Z,4.50
2022-09-17T13:04:12.116Z,4.50
2022-09-17T13:05:12.092Z,4.90
2022-09-17T13:06:12.087Z,4.00
2022-09-17T13:07:12.215Z,4.20
2022-09-17T13:08:12.069Z,4.30
2022-09-17T13:09:12.055Z,4.70
2022-09-17T13:10:12.052Z,4.70
2022-09-17T13:11:12.056Z,4.70
2022-09-17T13:12:12.021Z,4.90
2022-09-17T13:13:12.633Z,4.60
2022-09-17T13:14:12.204Z,4.80
2022-09-17T13:15:12.019Z,4.80
2022-09-17T13:16:14.464Z,4.80
2022-09-17T13:17:13.000Z,4.70
2022-09-17T13:18:25.172Z,4.70